Time;durP1;ratioP1;P1;durP2;ratioP2;P2;SDS_P1;SDS_P2;PMS_P1;PMS_P2;Temp;Humidity;BMP_temperature;BMP_pressure;BME280_temperature;BME280_humidity;BME280_pressure;Samples;Min_cycle;Max_cycle;Signal;HPM_P1;HPM_P2
2023/07/11 00:00:48;;;;;;;14.90;13.00;;;;;;;18.30;75.57;100396.91;129891;1254;115151;-63
2023/07/11 00:04:09;;;;;;;19.50;14.30;;;;;;;18.26;75.61;100395.61;129975;1270;129377;-62
2023/07/11 00:07:11;;;;;;;17.90;15.30;;;;;;;18.23;75.74;100401.48;130162;1254;115205;-61
2023/07/11 00:10:16;;;;;;;16.20;13.20;;;;;;;18.18;75.87;100403.80;130135;1266;115163;-61
2023/07/11 00:13:18;;;;;;;17.90;13.90;;;;;;;18.15;75.90;100403.88;129696;1262;114811;-62
2023/07/11 00:16:21;;;;;;;17.80;13.40;;;;;;;18.11;75.98;100408.00;130160;1257;114893;-62
2023/07/11 00:19:24;;;;;;;19.10;17.00;;;;;;;18.07;76.36;100412.27;129996;1270;114776;-62
2023/07/11 00:22:28;;;;;;;17.50;13.90;;;;;;;18.03;76.38;100413.64;130107;1258;115318;-62
2023/07/11 00:25:30;;;;;;;17.70;13.80;;;;;;;18.00;76.57;100421.54;129809;1276;128592;-63
2023/07/11 00:28:32;;;;;;;22.10;19.00;;;;;;;17.96;76.83;100422.13;129925;1257;115207;-61
2023/07/11 00:31:34;;;;;;;18.30;14.70;;;;;;;17.93;76.97;100429.59;129995;1257;115173;-61
2023/07/11 00:34:36;;;;;;;15.60;13.90;;;;;;;17.89;77.08;100429.54;129751;1276;114814;-63
2023/07/11 00:37:38;;;;;;;19.30;14.60;;;;;;;17.86;77.18;100433.58;129949;1267;114786;-62
2023/07/11 00:40:42;;;;;;;15.20;13.50;;;;;;;17.83;77.38;100434.92;130067;1260;114788;-62
2023/07/11 00:43:44;;;;;;;17.70;14.10;;;;;;;17.81;77.72;100434.94;130030;1254;114727;-62
2023/07/11 00:46:46;;;;;;;17.30;14.30;;;;;;;17.79;77.93;100436.71;130017;1253;115227;-62
2023/07/11 00:49:57;;;;;;;16.80;14.50;;;;;;;17.75;78.00;100437.66;130162;1257;115156;-64
2023/07/11 00:53:01;;;;;;;18.40;14.70;;;;;;;17.73;78.19;100434.80;129777;1260;115429;-64
2023/07/11 00:56:06;;;;;;;14.80;12.90;;;;;;;17.71;78.34;100437.13;129842;1255;114733;-62
2023/07/11 00:59:08;;;;;;;18.40;13.10;;;;;;;17.69;78.62;100439.65;130042;1257;114738;-63
2023/07/11 01:02:18;;;;;;;17.10;12.20;;;;;;;17.67;78.58;100440.88;130184;1257;114863;-63
2023/07/11 01:05:21;;;;;;;14.20;12.70;;;;;;;17.65;78.58;100439.92;130112;1257;128819;-63
2023/07/11 01:08:24;;;;;;;22.40;14.70;;;;;;;17.63;78.60;100444.61;130168;1254;114795;-63
2023/07/11 01:11:29;;;;;;;16.00;14.30;;;;;;;17.59;78.54;100452.45;130181;1253;114976;-63
2023/07/11 01:14:31;;;;;;;13.40;12.00;;;;;;;17.57;78.81;100455.90;130144;1276;114773;-62
2023/07/11 01:17:35;;;;;;;16.70;12.60;;;;;;;17.54;78.82;100457.70;129724;1272;114901;-63
2023/07/11 01:20:38;;;;;;;13.70;11.60;;;;;;;17.53;78.87;100453.69;130154;1257;114784;-63
2023/07/11 01:23:40;;;;;;;17.30;12.30;;;;;;;17.51;78.94;100456.88;130262;1256;114807;-62
2023/07/11 01:26:43;;;;;;;13.00;10.50;;;;;;;17.49;78.94;100458.48;130190;1256;114725;-63
2023/07/11 01:29:47;;;;;;;13.00;11.70;;;;;;;17.47;78.98;100460.05;130095;1259;114898;-63
2023/07/11 01:32:50;;;;;;;13.40;12.00;;;;;;;17.45;78.99;100461.64;129988;1258;114881;-61
2023/07/11 01:35:53;;;;;;;14.20;11.60;;;;;;;17.43;78.98;100464.50;130247;1276;114668;-63
2023/07/11 01:38:56;;;;;;;17.80;12.20;;;;;;;17.41;79.17;100460.13;130105;1270;114849;-63
2023/07/11 01:41:59;;;;;;;15.30;11.50;;;;;;;17.39;79.09;100455.60;130252;1256;115436;-62
2023/07/11 01:45:01;;;;;;;15.20;11.40;;;;;;;17.37;79.06;100455.44;130208;1267;114706;-63
2023/07/11 01:48:04;;;;;;;15.90;12.20;;;;;;;17.34;78.91;100447.89;130162;1275;114759;-63
2023/07/11 01:51:06;;;;;;;14.80;11.10;;;;;;;17.29;79.15;100446.63;129721;1254;115078;-63
2023/07/11 01:54:08;;;;;;;15.50;11.30;;;;;;;17.26;79.17;100444.32;130141;1256;115230;-63
2023/07/11 01:57:14;;;;;;;14.70;11.70;;;;;;;17.23;79.14;100446.38;130163;1276;114744;-63
2023/07/11 02:00:17;;;;;;;19.30;13.10;;;;;;;17.18;79.22;100447.77;130347;1254;129272;-62
2023/07/11 02:03:19;;;;;;;15.80;12.10;;;;;;;17.14;79.34;100446.59;130258;1257;114804;-63
2023/07/11 02:06:22;;;;;;;15.70;11.80;;;;;;;17.12;79.36;100454.39;130162;1275;115391;-64
2023/07/11 02:09:24;;;;;;;14.90;11.80;;;;;;;17.09;79.47;100454.22;130231;1255;114815;-61
2023/07/11 02:12:26;;;;;;;13.80;11.70;;;;;;;17.06;79.50;100456.63;130096;1256;114952;-63
2023/07/11 02:15:28;;;;;;;14.60;11.30;;;;;;;17.03;79.60;100460.44;130059;1257;114764;-63
2023/07/11 02:18:30;;;;;;;14.60;12.00;;;;;;;17.00;79.63;100463.35;130092;1257;114633;-62
2023/07/11 02:21:33;;;;;;;12.90;11.60;;;;;;;16.98;79.81;100458.68;129721;1276;129800;-65
2023/07/11 02:24:35;;;;;;;14.10;12.10;;;;;;;16.94;79.87;100460.38;130034;1254;115186;-61
2023/07/11 02:27:37;;;;;;;15.90;12.60;;;;;;;16.92;79.89;100467.18;130186;1253;114862;-63
2023/07/11 02:30:40;;;;;;;17.40;12.50;;;;;;;16.90;80.23;100463.16;129716;1272;114901;-65
2023/07/11 02:33:42;;;;;;;13.90;12.30;;;;;;;16.88;80.21;100459.17;129786;1261;114795;-62
2023/07/11 02:36:45;;;;;;;15.10;12.40;;;;;;;16.86;80.24;100465.81;130071;1254;114801;-63
2023/07/11 02:39:47;;;;;;;13.00;11.50;;;;;;;16.83;80.35;100465.45;130243;1266;114741;-64
2023/07/11 02:42:50;;;;;;;13.80;12.00;;;;;;;16.83;80.47;100464.80;129995;1276;128526;-64
2023/07/11 02:45:54;;;;;;;14.00;12.60;;;;;;;16.82;80.57;100467.55;129867;1254;116467;-62
2023/07/11 02:48:56;;;;;;;13.90;12.20;;;;;;;16.82;80.71;100464.99;129854;1254;115089;-65
2023/07/11 02:51:58;;;;;;;18.70;13.40;;;;;;;16.84;80.87;100460.38;130032;1257;114766;-63
2023/07/11 02:55:00;;;;;;;18.20;13.20;;;;;;;16.84;81.00;100465.02;130155;1276;114787;-62
2023/07/11 02:58:03;;;;;;;15.70;11.90;;;;;;;16.86;80.95;100468.50;130082;1253;114732;-65
2023/07/11 03:01:05;;;;;;;14.30;12.50;;;;;;;16.88;81.07;100468.01;130208;1267;115136;-63
2023/07/11 03:04:07;;;;;;;15.80;12.60;;;;;;;16.91;81.14;100471.63;130283;1254;115311;-63
2023/07/11 03:07:09;;;;;;;13.00;11.60;;;;;;;16.93;81.27;100471.82;130215;1254;116301;-64
2023/07/11 03:10:12;;;;;;;14.50;12.80;;;;;;;16.96;81.30;100474.13;130188;1256;114716;-64
2023/07/11 03:13:15;;;;;;;14.20;12.20;;;;;;;17.01;81.37;100476.69;130228;1257;114788;-64
2023/07/11 03:16:17;;;;;;;16.20;12.10;;;;;;;17.06;81.61;100482.45;130027;1261;114716;-64
2023/07/11 03:19:20;;;;;;;13.10;11.60;;;;;;;17.11;81.58;100476.96;130141;1257;114766;-63
2023/07/11 03:22:24;;;;;;;12.80;11.50;;;;;;;17.18;81.59;100479.54;130106;1256;114794;-63
2023/07/11 03:25:26;;;;;;;15.60;12.60;;;;;;;17.25;81.65;100480.14;130157;1252;114649;-63
2023/07/11 03:28:28;;;;;;;17.50;12.90;;;;;;;17.33;81.64;100488.21;130303;1276;115621;-63
2023/07/11 03:31:30;;;;;;;15.10;11.70;;;;;;;17.40;81.62;100489.13;130052;1254;352585;-63
2023/07/11 03:34:32;;;;;;;14.90;11.70;;;;;;;17.49;81.64;100492.44;130234;1257;114722;-64
2023/07/11 03:37:35;;;;;;;14.60;11.60;;;;;;;17.57;81.58;100496.85;130193;1270;115262;-63
2023/07/11 03:40:37;;;;;;;15.00;10.90;;;;;;;17.66;81.58;100498.70;130192;1256;114709;-63
2023/07/11 03:43:39;;;;;;;16.40;11.30;;;;;;;17.74;81.48;100500.11;130247;1257;114775;-63
2023/07/11 03:46:41;;;;;;;13.20;11.60;;;;;;;17.81;81.44;100495.79;130054;1276;115307;-63
2023/07/11 03:49:43;;;;;;;14.00;11.30;;;;;;;17.86;81.28;100501.52;130203;1257;115179;-63
2023/07/11 03:52:46;;;;;;;12.10;10.90;;;;;;;17.91;81.14;100503.13;130070;1260;115135;-62
2023/07/11 03:55:48;;;;;;;11.50;10.20;;;;;;;17.95;81.04;100502.52;129843;1261;115102;-63
2023/07/11 03:58:50;;;;;;;13.10;10.40;;;;;;;18.00;81.07;100506.44;130126;1256;114741;-63
2023/07/11 04:01:52;;;;;;;15.30;10.20;;;;;;;18.04;80.94;100513.38;130074;1276;115381;-62
2023/07/11 04:04:55;;;;;;;13.90;10.00;;;;;;;18.07;80.80;100517.85;130107;1254;114752;-62
2023/07/11 04:07:57;;;;;;;12.00;10.70;;;;;;;18.12;80.90;100519.12;130087;1254;115252;-62
2023/07/11 04:11:00;;;;;;;11.50;10.30;;;;;;;18.17;80.83;100518.55;130115;1256;115171;-63
2023/07/11 04:14:02;;;;;;;11.70;9.60;;;;;;;18.20;80.62;100515.56;130234;1266;115194;-63
2023/07/11 04:17:04;;;;;;;11.90;9.70;;;;;;;18.24;80.64;100516.20;129990;1254;114765;-63
2023/07/11 04:20:07;;;;;;;14.00;9.50;;;;;;;18.29;80.64;100522.83;129742;1257;114702;-63
2023/07/11 04:23:09;;;;;;;13.90;9.90;;;;;;;18.36;80.53;100520.86;130158;1254;114783;-63
2023/07/11 04:26:11;;;;;;;10.20;9.20;;;;;;;18.42;80.39;100521.48;130071;1257;114650;-62
2023/07/11 04:29:13;;;;;;;17.60;10.00;;;;;;;18.48;80.30;100520.23;130133;1276;114785;-63
2023/07/11 04:32:16;;;;;;;12.60;9.80;;;;;;;18.56;80.25;100521.44;130081;1256;115093;-64
2023/07/11 04:35:19;;;;;;;11.90;9.20;;;;;;;18.67;80.21;100526.02;130207;1257;115210;-64
2023/07/11 04:38:21;;;;;;;11.70;8.70;;;;;;;18.83;80.29;100524.92;130121;1254;114756;-63
2023/07/11 04:41:23;;;;;;;9.60;8.60;;;;;;;19.05;80.17;100524.02;130210;1257;114690;-64
2023/07/11 04:44:26;;;;;;;12.10;7.90;;;;;;;19.35;80.14;100527.77;129828;1264;128558;-63
2023/07/11 04:47:28;;;;;;;11.30;8.80;;;;;;;19.59;79.75;100531.95;130169;1257;114769;-62
2023/07/11 04:50:30;;;;;;;10.50;8.10;;;;;;;19.78;79.32;100533.75;130170;1268;114772;-62
2023/07/11 04:53:33;;;;;;;12.10;8.10;;;;;;;19.93;78.77;100532.92;130049;1253;115156;-63
2023/07/11 04:56:38;;;;;;;11.80;7.60;;;;;;;20.03;78.24;100538.02;129869;1257;114825;-63
2023/07/11 04:59:40;;;;;;;10.20;8.50;;;;;;;20.14;77.99;100534.95;130161;1258;114635;-64
2023/07/11 05:02:43;;;;;;;10.90;7.30;;;;;;;20.30;77.87;100534.84;130149;1269;114690;-62
2023/07/11 05:05:45;;;;;;;11.90;6.80;;;;;;;20.48;77.51;100535.98;130184;1254;115329;-62
2023/07/11 05:08:47;;;;;;;8.60;7.40;;;;;;;20.68;77.33;100538.98;130148;1267;116394;-63
2023/07/11 05:11:49;;;;;;;9.20;7.10;;;;;;;20.98;77.05;100541.74;130204;1259;115141;-62
2023/07/11 05:14:52;;;;;;;8.80;6.60;;;;;;;21.61;77.26;100540.42;130083;1259;114951;-63
2023/07/11 05:17:54;;;;;;;7.80;6.50;;;;;;;22.55;76.37;100538.77;129697;1257;114916;-62
2023/07/11 05:20:58;;;;;;;8.10;6.20;;;;;;;23.15;74.87;100534.79;130192;1257;114827;-62
2023/07/11 05:24:01;;;;;;;8.70;6.60;;;;;;;23.97;73.94;100533.70;130129;1276;114858;-64
2023/07/11 05:27:04;;;;;;;8.60;6.40;;;;;;;24.56;71.98;100532.09;130257;1254;114801;-63
2023/07/11 05:30:08;;;;;;;7.00;6.10;;;;;;;25.00;70.82;100532.73;130192;1257;114712;-64
2023/07/11 05:33:10;;;;;;;9.10;7.00;;;;;;;25.33;69.36;100537.58;130243;1253;114747;-64
2023/07/11 05:39:17;;;;;;;;;;;;;;;26.11;67.26;100536.73;130285;1255;114788;-68
2023/07/11 05:42:19;;;;;;;7.20;5.60;;;;;;;26.54;66.04;100536.68;130496;1254;114779;-65
2023/07/11 05:45:21;;;;;;;8.00;5.90;;;;;;;26.74;64.43;100531.14;130488;1254;114708;-65
2023/07/11 05:48:23;;;;;;;6.90;5.90;;;;;;;26.57;63.62;100536.08;130408;1253;114737;-66
2023/07/11 05:51:25;;;;;;;7.80;4.70;;;;;;;26.54;63.21;100539.65;130406;1257;115453;-65
2023/07/11 05:54:27;;;;;;;6.20;5.10;;;;;;;26.67;62.64;100536.52;130380;1260;114869;-65
2023/07/11 05:57:29;;;;;;;6.20;4.90;;;;;;;26.98;62.25;100535.16;130035;1254;114898;-63
2023/07/11 06:00:31;;;;;;;7.90;5.30;;;;;;;27.39;61.10;100530.08;130037;1258;114794;-63
2023/07/11 06:03:33;;;;;;;6.20;4.60;;;;;;;27.76;60.27;100529.45;130105;1254;115327;-63
2023/07/11 06:06:41;;;;;;;7.00;4.80;;;;;;;28.08;58.82;100531.02;130156;1257;115188;-66
2023/07/11 06:09:43;;;;;;;7.70;5.00;;;;;;;28.40;57.95;100533.06;130234;1256;114860;-63
2023/07/11 06:12:45;;;;;;;8.50;5.00;;;;;;;28.56;56.59;100532.94;130147;1254;114734;-63
2023/07/11 06:15:56;;;;;;;6.90;4.90;;;;;;;28.47;56.05;100529.66;129871;1275;115159;-64
2023/07/11 06:18:59;;;;;;;6.90;4.40;;;;;;;28.56;55.14;100535.23;129769;1276;119241;-63
2023/07/11 06:22:01;;;;;;;5.40;4.00;;;;;;;28.39;54.68;100536.88;130253;1273;114707;-62
2023/07/11 06:25:04;;;;;;;4.50;4.10;;;;;;;28.24;55.01;100536.56;130182;1256;114744;-63
2023/07/11 06:28:06;;;;;;;6.80;4.40;;;;;;;28.40;54.76;100535.58;130283;1256;115122;-63
2023/07/11 06:31:11;;;;;;;5.90;4.60;;;;;;;28.56;54.31;100534.73;130417;1257;114788;-65
2023/07/11 06:34:13;;;;;;;5.60;4.30;;;;;;;28.77;53.24;100529.86;130002;1259;114832;-63
2023/07/11 06:37:15;;;;;;;5.80;3.90;;;;;;;28.96;52.84;100526.02;130108;1256;114734;-61
2023/07/11 06:40:18;;;;;;;6.00;4.20;;;;;;;28.96;52.20;100526.50;130888;1257;114709;-61
2023/07/11 06:43:23;;;;;;;9.80;4.30;;;;;;;28.82;52.07;100525.08;131067;1261;115007;-61
2023/07/11 06:46:25;;;;;;;4.50;3.60;;;;;;;29.02;51.79;100519.15;130580;1257;114861;-67
2023/07/11 06:49:28;;;;;;;4.70;3.80;;;;;;;29.33;51.82;100519.45;130251;1257;114711;-65
2023/07/11 06:52:31;;;;;;;7.70;4.00;;;;;;;29.59;51.23;100521.40;130093;1276;114746;-67
2023/07/11 06:55:34;;;;;;;5.10;3.70;;;;;;;29.76;50.46;100520.17;130400;1276;114670;-64
2023/07/11 06:58:36;;;;;;;6.10;4.10;;;;;;;29.64;49.68;100517.89;130427;1254;115668;-70
2023/07/11 07:01:38;;;;;;;6.00;4.00;;;;;;;29.31;49.45;100520.34;130104;1276;115166;-68
2023/07/11 07:04:41;;;;;;;6.80;3.90;;;;;;;29.38;49.37;100523.16;129959;1276;114817;-63
2023/07/11 07:07:43;;;;;;;3.90;3.60;;;;;;;29.58;48.80;100522.11;130113;1256;114765;-67
2023/07/11 07:10:46;;;;;;;3.90;3.50;;;;;;;29.73;48.12;100526.43;130037;1256;114700;-59
2023/07/11 07:13:49;;;;;;;3.90;3.40;;;;;;;30.05;47.68;100525.52;130192;1276;114728;-63
2023/07/11 07:16:51;;;;;;;5.80;3.80;;;;;;;30.43;47.43;100524.11;129903;1261;119948;-62
2023/07/11 07:19:54;;;;;;;4.90;3.40;;;;;;;30.89;47.12;100524.09;129985;1257;114784;-61
2023/07/11 07:22:56;;;;;;;4.10;3.80;;;;;;;31.29;45.78;100522.83;130222;1257;115305;-63
2023/07/11 07:25:59;;;;;;;3.60;3.20;;;;;;;31.57;44.62;100515.84;129978;1263;114815;-63
2023/07/11 07:29:01;;;;;;;5.20;3.40;;;;;;;31.92;44.82;100513.35;129916;1257;114821;-65
2023/07/11 07:32:04;;;;;;;4.90;3.20;;;;;;;32.44;44.50;100509.11;130057;1275;114737;-62
2023/07/11 07:35:07;;;;;;;4.70;3.00;;;;;;;32.85;43.51;100510.05;130359;1276;115117;-65
2023/07/11 07:38:10;;;;;;;3.40;3.00;;;;;;;33.27;42.32;100507.50;130286;1267;114785;-63
2023/07/11 07:41:12;;;;;;;3.60;3.30;;;;;;;33.64;41.27;100503.45;130420;1257;114683;-62
2023/07/11 07:44:14;;;;;;;4.70;2.80;;;;;;;33.81;40.57;100499.23;129999;1254;115307;-65
2023/07/11 07:47:16;;;;;;;4.10;2.90;;;;;;;33.96;40.27;100497.55;130382;1256;114692;-65
2023/07/11 07:50:19;;;;;;;4.40;2.80;;;;;;;34.15;38.99;100491.21;129659;1273;114811;-66
2023/07/11 07:53:21;;;;;;;4.60;3.20;;;;;;;34.27;38.77;100492.02;130148;1272;114728;-62
2023/07/11 07:56:23;;;;;;;5.00;2.60;;;;;;;34.44;37.89;100489.08;130114;1272;114727;-65
2023/07/11 07:59:26;;;;;;;3.60;3.10;;;;;;;34.61;37.43;100491.23;130142;1273;114800;-66
2023/07/11 08:02:31;;;;;;;4.40;3.10;;;;;;;34.73;37.02;100493.37;130345;1255;115150;-62
2023/07/11 08:05:35;;;;;;;3.10;2.80;;;;;;;34.87;36.46;100494.55;130000;1264;114758;-69
2023/07/11 08:08:37;;;;;;;5.60;2.50;;;;;;;34.97;36.06;100498.89;130163;1276;114693;-66
2023/07/11 08:11:42;;;;;;;3.60;3.00;;;;;;;34.98;35.92;100494.17;129961;1257;114779;-67
2023/07/11 08:14:45;;;;;;;5.40;3.20;;;;;;;35.10;35.77;100488.67;129800;1259;119426;-64
2023/07/11 08:17:47;;;;;;;3.10;2.80;;;;;;;35.24;35.44;100487.18;130124;1272;114862;-67
2023/07/11 08:20:49;;;;;;;3.30;3.00;;;;;;;35.35;35.28;100485.68;130024;1257;114763;-73
2023/07/11 08:23:51;;;;;;;3.80;2.80;;;;;;;35.48;34.67;100481.98;130063;1276;115074;-70
2023/07/11 08:26:54;;;;;;;4.10;3.00;;;;;;;35.57;34.09;100480.34;130101;1276;114736;-74
2023/07/11 08:29:56;;;;;;;3.50;2.80;;;;;;;35.56;33.79;100481.48;130001;1276;114724;-75
2023/07/11 08:32:58;;;;;;;3.30;3.00;;;;;;;35.43;33.32;100480.82;129966;1273;115224;-63
2023/07/11 08:36:00;;;;;;;3.00;2.60;;;;;;;35.35;32.82;100480.98;130486;1269;114711;-68
2023/07/11 08:39:03;;;;;;;3.70;2.80;;;;;;;35.26;32.82;100481.75;130394;1257;115140;-68
2023/07/11 08:42:22;;;;;;;3.50;3.20;;;;;;;35.33;32.65;100479.94;129994;1272;115103;-70
2023/07/11 08:45:34;;;;;;;2.40;2.20;;;;;;;35.42;32.50;100480.80;129723;1272;114809;-70
2023/07/11 08:48:42;;;;;;;3.20;2.80;;;;;;;35.41;32.02;100482.23;130582;1256;114807;-71
2023/07/11 08:51:50;;;;;;;2.60;2.30;;;;;;;35.41;32.01;100480.34;130054;1260;119449;-61
2023/07/11 08:55:08;;;;;;;4.10;2.50;;;;;;;35.37;31.54;100479.77;129772;1257;116258;-67
2023/07/11 08:58:35;;;;;;;2.90;2.50;;;;;;;35.28;31.43;100480.91;129680;1262;114897;-71
2023/07/11 09:01:45;;;;;;;4.10;2.30;;;;;;;35.19;31.35;100483.40;130240;1261;114779;-69
2023/07/11 09:04:51;;;;;;;4.80;2.80;;;;;;;35.04;31.03;100482.05;130527;1253;114804;-69
2023/07/11 09:07:53;;;;;;;4.00;2.70;;;;;;;34.91;30.68;100474.96;130382;1276;119272;-69
2023/07/11 09:11:17;;;;;;;4.00;2.30;;;;;;;34.69;30.85;100472.52;130186;1256;116322;-69
2023/07/11 09:14:44;;;;;;;4.60;2.70;;;;;;;34.47;30.93;100466.74;130100;1270;115321;-71
2023/07/11 09:18:10;;;;;;;4.70;3.20;;;;;;;34.13;30.71;100462.05;130676;1272;114673;-67
2023/07/11 09:21:43;;;;;;;5.00;2.60;;;;;;;33.95;31.04;100462.31;130422;1257;115065;-69
2023/07/11 09:25:07;;;;;;;3.40;2.80;;;;;;;33.87;30.98;100461.00;130538;1257;120173;-61
2023/07/11 09:28:19;;;;;;;3.60;2.80;;;;;;;33.86;31.39;100456.73;130499;1256;114725;-66
2023/07/11 09:31:22;;;;;;;3.10;2.20;;;;;;;33.78;31.21;100453.46;129772;1253;114903;-69
2023/07/11 09:34:28;;;;;;;2.80;2.40;;;;;;;33.64;31.08;100455.66;130227;1254;114801;-65
2023/07/11 09:37:37;;;;;;;2.70;2.10;;;;;;;33.51;30.75;100452.34;130604;1260;116244;-65
2023/07/11 09:41:02;;;;;;;6.10;2.60;;;;;;;33.24;30.85;100450.74;130301;1254;120034;-64
2023/07/11 09:44:10;;;;;;;2.80;2.10;;;;;;;33.01;30.68;100441.94;130453;1254;114705;-64
2023/07/11 09:47:18;;;;;;;3.20;2.20;;;;;;;32.72;30.59;100436.67;130515;1256;114763;-64
2023/07/11 09:50:23;;;;;;;3.60;1.80;;;;;;;32.36;31.22;100435.20;129819;1273;114736;-64
2023/07/11 09:53:28;;;;;;;2.30;2.00;;;;;;;32.17;31.36;100439.20;129809;1272;114765;-64
2023/07/11 09:56:43;;;;;;;4.10;2.40;;;;;;;32.05;31.27;100442.31;130192;1256;120175;-63
2023/07/11 09:59:58;;;;;;;2.40;1.90;;;;;;;31.76;30.93;100441.61;130075;1257;114627;-65
2023/07/11 10:03:00;;;;;;;2.30;1.80;;;;;;;31.52;31.46;100437.58;130110;1270;114791;-66
2023/07/11 10:06:04;;;;;;;2.40;2.00;;;;;;;31.37;31.99;100436.48;130527;1257;114815;-64
2023/07/11 10:09:12;;;;;;;4.40;2.10;;;;;;;31.30;32.34;100435.20;129991;1275;115118;-64
2023/07/11 10:12:21;;;;;;;4.50;2.10;;;;;;;31.22;32.13;100429.81;129627;1276;119782;-62
2023/07/11 10:15:24;;;;;;;4.40;2.30;;;;;;;31.08;32.24;100428.14;130032;1257;114741;-63
2023/07/11 10:18:35;;;;;;;4.50;2.60;;;;;;;30.93;31.96;100427.96;129856;1275;114881;-63
2023/07/11 10:21:37;;;;;;;3.30;2.20;;;;;;;30.75;32.32;100424.46;129715;1262;115059;-65
2023/07/11 10:24:39;;;;;;;2.70;2.00;;;;;;;30.72;32.26;100423.64;130429;1254;115289;-65
2023/07/11 10:27:42;;;;;;;4.00;2.30;;;;;;;30.62;32.13;100420.54;130434;1257;114787;-63
2023/07/11 10:30:44;;;;;;;3.20;2.30;;;;;;;30.48;32.57;100418.44;130154;1260;120180;-62
2023/07/11 10:33:52;;;;;;;3.40;2.20;;;;;;;30.47;33.21;100418.00;129913;1261;114820;-66
2023/07/11 10:37:00;;;;;;;3.40;2.10;;;;;;;30.43;33.15;100413.69;129979;1276;114917;-66
2023/07/11 10:40:09;;;;;;;4.80;2.20;;;;;;;30.44;33.47;100415.86;129977;1256;114789;-62
2023/07/11 10:43:23;;;;;;;4.30;1.90;;;;;;;30.43;32.91;100415.44;130019;1260;114731;-62
2023/07/11 10:46:41;;;;;;;2.10;1.90;;;;;;;30.30;32.35;100404.17;129957;1256;119749;-63
2023/07/11 10:49:50;;;;;;;3.20;2.20;;;;;;;30.19;32.77;100400.38;129924;1276;115117;-61
2023/07/11 10:52:53;;;;;;;3.90;1.70;;;;;;;30.15;32.72;100400.98;130046;1254;114725;-67
2023/07/11 10:56:00;;;;;;;5.50;1.40;;;;;;;30.11;32.90;100401.27;130301;1262;115269;-67
2023/07/11 10:59:03;;;;;;;3.60;1.40;;;;;;;30.11;33.05;100402.28;134709;1253;112590;-67
2023/07/11 11:02:12;;;;;;;5.80;2.10;;;;;;;30.17;32.85;100395.85;134683;1252;112630;-67
2023/07/11 11:05:27;;;;;;;2.30;1.90;;;;;;;30.18;32.66;100400.29;134806;1253;112624;-68
2023/07/11 11:08:53;;;;;;;3.40;1.80;;;;;;;30.12;32.19;100401.31;134367;1254;112772;-67
2023/07/11 11:12:23;;;;;;;2.60;2.30;;;;;;;29.98;32.24;100392.23;130089;1263;114776;-67
2023/07/11 11:15:40;;;;;;;5.60;2.00;;;;;;;29.82;32.07;100385.77;129903;1280;114881;-67
2023/07/11 11:18:51;;;;;;;2.40;2.10;;;;;;;29.64;32.10;100385.59;129904;1280;119194;-66
2023/07/11 11:22:12;;;;;;;3.00;2.30;;;;;;;29.55;32.72;100380.56;129872;1274;115195;-65
2023/07/11 11:25:25;;;;;;;2.00;1.80;;;;;;;29.54;32.57;100385.34;129868;1263;114848;-66
2023/07/11 11:28:33;;;;;;;3.00;2.20;;;;;;;29.49;32.36;100387.05;129938;1278;116140;-66
2023/07/11 11:31:42;;;;;;;1.70;1.60;;;;;;;29.42;32.23;100378.06;129532;1263;115948;-65
2023/07/11 11:35:07;;;;;;;3.00;2.20;;;;;;;29.31;32.26;100379.95;129493;1280;119414;-67
2023/07/11 11:38:21;;;;;;;6.00;2.40;;;;;;;29.21;32.50;100381.11;129921;1262;115238;-65
2023/07/11 11:41:35;;;;;;;4.90;2.20;;;;;;;29.15;32.92;100376.54;129643;1280;114925;-65
2023/07/11 11:44:48;;;;;;;2.60;1.70;;;;;;;29.14;33.01;100374.77;129520;1265;114806;-66
2023/07/11 11:47:51;;;;;;;3.30;1.80;;;;;;;29.12;32.92;100374.88;129650;1276;115147;-66
2023/07/11 11:50:54;;;;;;;2.50;1.80;;;;;;;29.05;32.86;100366.44;130361;1254;114721;-66
2023/07/11 11:54:11;;;;;;;7.50;2.00;;;;;;;28.98;32.96;100361.77;130251;1257;114784;-66
2023/07/11 11:57:23;;;;;;;2.50;2.10;;;;;;;28.92;33.21;100359.73;130277;1257;114727;-66
2023/07/11 12:00:59;;;;;;;2.70;2.10;;;;;;;28.89;33.48;100361.63;130306;1258;114680;-66
2023/07/11 12:04:28;;;;;;;5.00;2.40;;;;;;;28.83;33.29;100355.90;130259;1276;115363;-67
2023/07/11 12:07:39;;;;;;;3.40;2.10;;;;;;;28.69;32.75;100351.95;130073;1259;118986;-66
2023/07/11 12:11:09;;;;;;;4.00;2.20;;;;;;;28.57;33.09;100350.56;130271;1257;114753;-66
2023/07/11 12:14:35;;;;;;;2.90;2.20;;;;;;;28.46;33.00;100344.92;130012;1254;114868;-66
2023/07/11 12:17:40;;;;;;;3.50;2.40;;;;;;;28.38;33.42;100338.71;130051;1262;114861;-66
2023/07/11 12:21:06;;;;;;;2.90;2.10;;;;;;;28.38;33.86;100339.73;130280;1257;115160;-67
2023/07/11 12:24:21;;;;;;;5.60;2.50;;;;;;;28.38;33.71;100333.50;130323;1257;119208;-67
2023/07/11 12:27:23;;;;;;;2.70;1.70;;;;;;;28.39;33.56;100323.04;130214;1259;116372;-67
2023/07/11 12:30:38;;;;;;;2.30;1.80;;;;;;;28.35;33.71;100323.67;130354;1267;115089;-67
2023/07/11 12:33:40;;;;;;;2.70;2.00;;;;;;;28.35;34.03;100320.16;130149;1266;114789;-67
2023/07/11 12:37:00;;;;;;;2.90;1.90;;;;;;;28.35;33.94;100314.23;130501;1273;114776;-64
2023/07/11 12:40:53;;;;;;;4.00;2.20;;;;;;;28.36;33.98;100316.16;129912;1276;119401;-65
2023/07/11 12:43:55;;;;;;;3.80;2.00;;;;;;;28.30;33.21;100309.59;130022;1261;115347;-66
2023/07/11 12:46:57;;;;;;;2.10;1.90;;;;;;;28.25;33.72;100306.89;130489;1260;114696;-67
2023/07/11 12:49:59;;;;;;;2.30;2.00;;;;;;;28.22;33.58;100304.94;130884;1256;114654;-66
2023/07/11 12:53:03;;;;;;;3.70;2.40;;;;;;;28.14;33.91;100302.94;131399;1257;114683;-67
2023/07/11 12:56:12;;;;;;;3.00;2.30;;;;;;;28.12;34.20;100304.61;130340;1276;114725;-67
2023/07/11 12:59:27;;;;;;;5.40;2.10;;;;;;;28.08;33.85;100305.29;130699;1257;128776;-66
2023/07/11 13:02:30;;;;;;;3.80;2.40;;;;;;;28.03;33.81;100305.02;130525;1261;114767;-67
2023/07/11 13:05:32;;;;;;;3.40;2.10;;;;;;;27.98;33.50;100303.34;130388;1276;115150;-67
2023/07/11 13:08:36;;;;;;;3.70;2.30;;;;;;;27.94;33.48;100300.23;130465;1276;115901;-66
2023/07/11 13:11:37;;;;;;;3.70;2.20;;;;;;;27.93;33.73;100296.00;130426;1256;114769;-65
2023/07/11 13:14:44;;;;;;;4.30;2.10;;;;;;;27.93;34.12;100293.44;130130;1272;114711;-66
2023/07/11 13:17:49;;;;;;;4.90;2.20;;;;;;;27.94;34.18;100292.48;130323;1257;120397;-66
2023/07/11 13:20:51;;;;;;;5.50;2.10;;;;;;;27.99;34.16;100290.60;130053;1261;116475;-68
2023/07/11 13:23:55;;;;;;;1.60;1.50;;;;;;;28.03;34.19;100285.40;130291;1267;115125;-67
2023/07/11 13:27:03;;;;;;;7.00;2.50;;;;;;;28.05;34.28;100288.73;130398;1256;115157;-68
2023/07/11 13:30:18;;;;;;;3.30;2.30;;;;;;;28.06;33.61;100288.69;130052;1263;114888;-68
2023/07/11 13:33:20;;;;;;;3.10;1.80;;;;;;;28.00;33.43;100284.98;130083;1261;119290;-68
2023/07/11 13:36:22;;;;;;;3.50;1.90;;;;;;;27.94;33.51;100280.92;130312;1257;115137;-68
2023/07/11 13:39:27;;;;;;;4.60;2.40;;;;;;;27.87;33.26;100276.41;130265;1266;114789;-66
2023/07/11 13:42:33;;;;;;;4.10;2.00;;;;;;;27.83;33.06;100273.55;130355;1260;115143;-67
2023/07/11 13:45:36;;;;;;;3.20;2.20;;;;;;;27.77;33.29;100271.80;129770;1263;114904;-68
2023/07/11 13:48:42;;;;;;;5.20;2.60;;;;;;;27.75;33.45;100268.71;129767;1262;115139;-68
2023/07/11 13:51:44;;;;;;;5.20;4.50;;;;;;;27.73;33.64;100261.23;129780;1257;115294;-67
2023/07/11 13:54:51;;;;;;;3.20;2.90;;;;;;;27.70;33.48;100261.49;129818;1281;114814;-67
2023/07/11 13:57:54;;;;;;;2.80;2.40;;;;;;;27.69;33.75;100261.69;129736;1266;116412;-67
2023/07/11 14:00:56;;;;;;;5.90;2.50;;;;;;;27.66;33.47;100259.64;129646;1271;114760;-67